This is the latest recevied weather packets stored in our database for station/object DC1MAK-13. If no packets are shown the sender has not sent any weather packets the latest 1 day(s).
| Time | Temp. | Humidity | Pressure | Rain* | Wind** | Luminosity | Snow |
|---|---|---|---|---|---|---|---|
| 1778006382 | 14.44° C | 80% | 978.2 hPa | - | 0 m/s | - | - |
| 1778005779 | 15° C | 81% | 978.3 hPa | - | 0 m/s | - | - |
| 1778005471 | 15° C | 80% | 978.3 hPa | - | 0 m/s | - | - |
| 1778005168 | 15° C | 79% | 978.3 hPa | - | 0 m/s | - | - |
| 1778004864 | 15° C | 78% | 978.2 hPa | - | 0 m/s | - | - |
| 1778004259 | 15.56° C | 79% | 978.1 hPa | - | 0 m/s | - | - |
| 1778003959 | 16.11° C | 77% | 977.9 hPa | - | 0 m/s | - | - |
| 1778003650 | 16.11° C | 75% | 977.9 hPa | - | 0 m/s | - | - |
| 1778003346 | 16.11° C | 74% | 977.9 hPa | - | 0 m/s | - | - |
| 1778003043 | 16.67° C | 72% | 977.9 hPa | - | 0 m/s | - | - |
| 1778002439 | 16.67° C | 69% | 977.8 hPa | - | 0 m/s | - | - |
| 1778002132 | 16.67° C | 69% | 977.7 hPa | - | 0 m/s | - | - |
| 1778001828 | 17.22° C | 66% | 977.8 hPa | - | 0 m/s | - | - |
| 1778001525 | 17.22° C | 66% | 977.8 hPa | - | 0 m/s | - | - |
| 1778000919 | 17.78° C | 64% | 977.7 hPa | - | 0 m/s | - | - |
| 1778000619 | 17.78° C | 61% | 977.7 hPa | - | 0 m/s | - | - |
| 1778000310 | 17.78° C | 61% | 977.7 hPa | - | 0 m/s | - | - |
| 1778000007 | 18.33° C | 60% | 977.6 hPa | - | 0 m/s | - | - |
| 1777999703 | 18.33° C | 58% | 977.6 hPa | - | 0 m/s | - | - |
| 1777999099 | 20° C | 53% | 977.6 hPa | - | 0 m/s | - | - |
| 1777998792 | 20° C | 50% | 977.6 hPa | - | 0 m/s | - | - |
| 1777998489 | 23.89° C | 43% | 977.6 hPa | - | 0 m/s | - | - |
| 1777998185 | 24.44° C | 41% | 977.6 hPa | - | 0 m/s | - | - |
| 1777997279 | 22.78° C | 47% | 977.6 hPa | - | 0 m/s | - | - |
| 1777996970 | 20.56° C | 55% | 977.7 hPa | - | 0 m/s | - | - |
* Rain since midnight (hover to see other rain measurements)
** Current wind speed in m/s (hover to see current wind gust speed)